Time;durP1;ratioP1;P1;durP2;ratioP2;P2;SDS_P1;SDS_P2;PMS_P1;PMS_P2;Temp;Humidity;BMP_temperature;BMP_pressure;BME280_temperature;BME280_humidity;BME280_pressure;Samples;Min_cycle;Max_cycle;Signal;HPM_P1;HPM_P2
2023/07/05 00:02:18;;;;;;;6.60;3.60;;;;;;;20.31;79.78;98941.91;109003;1258;71413;-21
2023/07/05 00:04:45;;;;;;;8.40;3.70;;;;;;;20.03;80.55;98944.31;108916;1259;58905;-21
2023/07/05 00:07:13;;;;;;;4.20;3.70;;;;;;;19.78;81.27;98940.80;109060;1258;58732;-21
2023/07/05 00:09:41;;;;;;;6.00;2.60;;;;;;;19.57;81.90;98937.33;109005;1258;72690;-21
2023/07/05 00:12:08;;;;;;;4.60;2.80;;;;;;;19.97;81.88;98937.65;108956;1259;73335;-21
2023/07/05 00:14:36;;;;;;;3.80;2.80;;;;;;;20.43;80.31;98941.52;108994;1259;72683;-21
2023/07/05 00:17:04;;;;;;;7.90;3.30;;;;;;;20.42;79.30;98941.70;108992;1257;60268;-21
2023/07/05 00:19:32;;;;;;;4.60;3.20;;;;;;;20.18;79.97;98945.90;109119;1256;58871;-21
2023/07/05 00:21:59;;;;;;;4.10;3.70;;;;;;;19.93;80.36;98949.61;109089;1257;73888;-21
2023/07/05 00:24:30;;;;;;;5.10;3.90;;;;;;;19.69;80.74;98945.13;109078;1257;74324;-21
2023/07/05 00:26:58;;;;;;;2.60;2.40;;;;;;;19.48;82.07;98950.25;108938;1257;71452;-21
2023/07/05 00:29:26;;;;;;;4.50;2.60;;;;;;;19.90;81.97;98944.33;109009;1258;60111;-21
2023/07/05 00:31:54;;;;;;;3.60;2.70;;;;;;;20.29;80.23;98943.39;109293;1254;60176;-22
2023/07/05 00:34:21;;;;;;;6.70;3.40;;;;;;;20.15;79.72;98941.49;109255;1255;72547;-22
2023/07/05 00:36:49;;;;;;;6.40;3.20;;;;;;;19.85;80.58;98943.47;109153;1254;74330;-23
2023/07/05 00:39:17;;;;;;;7.10;3.60;;;;;;;19.58;81.38;98941.43;109261;1254;72696;-22
2023/07/05 00:41:44;;;;;;;5.20;3.30;;;;;;;19.27;82.58;98941.16;109146;1256;60059;-22
2023/07/05 00:44:13;;;;;;;5.60;2.60;;;;;;;19.10;83.70;98933.98;109106;1255;60057;-21
2023/07/05 00:46:45;;;;;;;2.90;2.40;;;;;;;19.59;83.72;98935.30;109030;1256;73957;-21
2023/07/05 00:49:15;;;;;;;4.40;2.90;;;;;;;20.05;81.39;98946.23;108993;1255;74375;-21
2023/07/05 00:51:47;;;;;;;5.40;3.10;;;;;;;19.97;80.58;98949.50;108941;1261;72681;-21
2023/07/05 00:54:16;;;;;;;4.80;3.40;;;;;;;19.70;81.20;98946.89;109117;1256;60106;-21
2023/07/05 00:56:47;;;;;;;5.80;3.60;;;;;;;19.39;81.81;98945.52;109119;1256;58718;-21
2023/07/05 00:59:15;;;;;;;4.90;3.50;;;;;;;19.11;83.11;98943.32;109080;1256;72649;-21
2023/07/05 01:01:42;;;;;;;4.20;2.20;;;;;;;18.87;85.50;98939.15;109058;1256;74317;-21
2023/07/05 01:04:30;;;;;;;3.30;3.00;;;;;;;19.30;85.79;98939.39;109164;1256;73122;-21
2023/07/05 01:06:58;;;;;;;9.20;3.70;;;;;;;19.74;83.76;98928.96;109015;1256;60150;-21
2023/07/05 01:09:26;;;;;;;4.10;3.30;;;;;;;19.78;83.04;98929.94;109099;1256;58936;-21
2023/07/05 01:12:06;;;;;;;8.70;4.30;;;;;;;19.57;83.28;98931.06;109184;1256;73864;-21
2023/07/05 01:14:43;;;;;;;6.30;4.20;;;;;;;19.33;83.94;98940.98;109103;1256;74377;-21
2023/07/05 01:17:17;;;;;;;3.70;2.90;;;;;;;19.13;84.39;98945.79;109061;1256;72648;-21
2023/07/05 01:20:16;;;;;;;3.80;2.90;;;;;;;19.53;83.81;98945.92;109094;1256;58966;-21
2023/07/05 01:23:07;;;;;;;3.20;2.90;;;;;;;19.91;81.82;98943.70;109235;1256;60097;-22
2023/07/05 01:25:42;;;;;;;6.80;3.60;;;;;;;19.76;81.66;98945.80;109132;1256;73829;-21
2023/07/05 01:28:48;;;;;;;5.70;4.00;;;;;;;19.50;82.05;98949.24;109028;1256;73570;-21
2023/07/05 01:31:36;;;;;;;7.30;3.70;;;;;;;19.23;83.09;98949.20;109197;1256;71336;-21
2023/07/05 01:34:09;;;;;;;2.90;2.60;;;;;;;19.02;84.06;98951.60;109177;1256;61664;-21
2023/07/05 01:36:37;;;;;;;4.70;3.20;;;;;;;19.50;83.63;98949.27;108972;1256;60003;-21
2023/07/05 01:39:05;;;;;;;5.80;3.10;;;;;;;19.87;81.88;98946.29;109092;1256;72592;-21
2023/07/05 01:41:34;;;;;;;4.10;3.70;;;;;;;19.82;81.56;98946.56;109041;1256;73191;-21
2023/07/05 01:44:05;;;;;;;4.10;3.70;;;;;;;19.58;81.83;98950.05;108965;1256;72741;-21
2023/07/05 01:46:46;;;;;;;6.00;3.90;;;;;;;19.30;82.50;98956.76;108958;1256;59327;-21
2023/07/05 01:49:47;;;;;;;4.80;4.20;;;;;;;18.97;84.11;98953.59;108987;1256;60034;-21
2023/07/05 01:52:27;;;;;;;5.80;2.70;;;;;;;18.79;85.60;98953.41;109042;1256;72499;-21
2023/07/05 01:55:27;;;;;;;4.50;3.30;;;;;;;19.42;84.95;98952.18;108950;1256;74425;-21
2023/07/05 01:58:07;;;;;;;5.10;4.00;;;;;;;19.76;82.71;98945.61;109080;1256;72685;-21
2023/07/05 02:04:55;;;;;;;8.30;4.50;;;;;;;19.22;83.78;98943.85;109208;1256;60048;-21
2023/07/05 02:07:25;;;;;;;7.40;4.20;;;;;;;18.84;86.22;98940.73;109047;1256;73851;-21
2023/07/05 02:09:56;;;;;;;4.80;2.80;;;;;;;18.64;87.85;98943.70;109048;1256;73316;-21
2023/07/05 02:12:26;;;;;;;6.10;3.00;;;;;;;19.21;86.58;98948.35;108962;1256;70474;-21
2023/07/05 02:14:58;;;;;;;4.50;3.20;;;;;;;19.71;83.85;98947.66;109052;1256;58977;-21
2023/07/05 02:17:28;;;;;;;5.60;3.90;;;;;;;19.72;82.54;98949.46;109053;1256;58979;-21
2023/07/05 02:19:59;;;;;;;5.20;3.90;;;;;;;19.52;82.77;98951.89;108956;1256;73061;-21
2023/07/05 02:22:31;;;;;;;4.60;4.00;;;;;;;19.28;83.22;98950.11;109030;1256;74481;-21
2023/07/05 02:25:01;;;;;;;10.10;4.80;;;;;;;18.87;85.86;98947.20;109021;1256;71469;-21
2023/07/05 02:27:32;;;;;;;3.70;2.90;;;;;;;18.51;89.18;98941.72;108983;1256;61672;-21
2023/07/05 02:30:01;;;;;;;7.60;3.80;;;;;;;19.10;87.86;98938.50;109051;1256;59145;-21
2023/07/05 02:32:32;;;;;;;4.20;3.40;;;;;;;19.52;84.36;98928.94;109030;1256;72592;-21
2023/07/05 02:35:04;;;;;;;4.70;4.00;;;;;;;19.61;83.59;98926.02;109009;1256;74329;-21
2023/07/05 02:37:33;;;;;;;4.80;3.90;;;;;;;19.45;83.59;98934.27;109029;1256;73266;-21
2023/07/05 02:47:37;;;;;;;6.60;3.80;;;;;;;19.84;83.05;98940.70;102666;1291;600058;-20
2023/07/05 02:50:05;;;;;;;6.50;3.70;;;;;;;19.80;82.05;98937.11;104846;1272;61239;-20
2023/07/05 02:52:34;;;;;;;4.40;3.90;;;;;;;19.61;82.00;98940.98;104903;1266;61212;-21
2023/07/05 02:55:01;;;;;;;4.60;3.90;;;;;;;19.32;82.70;98942.08;104814;1269;71018;-20
2023/07/05 02:57:29;;;;;;;4.20;2.50;;;;;;;19.09;83.74;98939.85;104828;1270;73028;-20
2023/07/05 02:59:57;;;;;;;3.10;2.70;;;;;;;19.45;84.14;98939.34;104815;1272;72646;-20
2023/07/05 03:10:03;;;;;;;6.70;5.40;;;;;;;19.64;82.71;98941.50;102720;1289;600202;-20
2023/07/05 03:12:31;;;;;;;3.40;2.80;;;;;;;19.39;83.02;98947.73;104850;1266;62592;-20
2023/07/05 03:21:21;;;;;;;5.10;4.40;;;;;;;20.11;81.23;98938.20;102623;1292;600164;-20
2023/07/05 03:23:49;;;;;;;5.50;4.00;;;;;;;19.87;81.79;98935.16;104813;1270;61081;-20
2023/07/05 03:26:17;;;;;;;6.10;5.00;;;;;;;19.66;82.49;98929.01;104840;1266;61010;-20
2023/07/05 03:28:44;;;;;;;5.50;3.50;;;;;;;19.43;83.90;98929.86;104904;1267;70966;-20
2023/07/05 03:31:14;;;;;;;7.80;4.30;;;;;;;19.74;84.22;98925.95;104810;1272;73329;-20
2023/07/05 03:33:41;;;;;;;7.50;4.30;;;;;;;20.19;82.78;98928.98;104782;1266;71417;-21
2023/07/05 03:36:13;;;;;;;10.50;4.70;;;;;;;20.22;82.05;98922.40;103258;1269;2600870;-21
2023/07/05 03:38:41;;;;;;;6.70;4.70;;;;;;;20.03;81.67;98926.67;104933;1269;61166;-21
2023/07/05 03:41:13;;;;;;;7.20;4.80;;;;;;;19.81;82.54;98927.83;105013;1267;70910;-21
2023/07/05 03:51:25;;;;;;;13.30;8.60;;;;;;;20.46;81.44;98938.08;102618;1293;599971;-21
2023/07/05 03:53:54;;;;;;;12.50;7.50;;;;;;;20.24;81.67;98935.95;104860;1269;61264;-20
2023/07/05 04:04:04;;;;;;;9.50;5.50;;;;;;;20.84;80.83;98933.83;102670;1294;600163;-21
2023/07/05 04:06:32;;;;;;;5.30;4.70;;;;;;;20.88;80.01;98938.73;104909;1267;61169;-20
2023/07/05 04:09:00;;;;;;;5.80;5.20;;;;;;;20.74;80.97;98944.58;104831;1267;61119;-20
2023/07/05 04:11:29;;;;;;;7.80;6.00;;;;;;;20.52;80.74;98942.15;105273;1263;70240;-21
2023/07/05 04:13:57;;;;;;;5.20;4.00;;;;;;;20.27;81.65;98943.10;105254;1258;73193;-20
2023/07/05 04:16:26;;;;;;;4.10;3.70;;;;;;;20.59;81.80;98944.11;105314;1263;71416;-21
2023/07/05 04:18:55;;;;;;;5.40;3.90;;;;;;;20.94;79.97;98939.06;103653;1260;61611;-20
2023/07/05 04:21:24;;;;;;;7.80;4.80;;;;;;;20.89;79.45;98937.00;105638;1256;61207;-20
2023/07/05 04:23:52;;;;;;;6.30;4.90;;;;;;;20.71;80.10;98943.42;105330;1263;72216;-20
2023/07/05 04:26:21;;;;;;;8.50;4.60;;;;;;;20.59;81.46;98937.39;105605;1260;73204;-20
2023/07/05 04:28:50;;;;;;;5.00;3.60;;;;;;;20.46;81.87;98941.73;105279;1257;72816;-21
2023/07/05 04:39:00;;;;;;;6.20;4.90;;;;;;;21.62;76.96;98938.92;102609;1292;600177;-21
2023/07/05 04:41:28;;;;;;;6.40;5.30;;;;;;;21.47;76.54;98940.14;104850;1269;61075;-21
2023/07/05 04:43:56;;;;;;;6.60;5.60;;;;;;;21.30;76.97;98934.98;104784;1269;61190;-20
2023/07/05 04:46:24;;;;;;;6.10;3.70;;;;;;;21.11;77.03;98928.15;104754;1272;69995;-20
2023/07/05 04:48:52;;;;;;;7.70;4.00;;;;;;;21.46;77.86;98927.55;104785;1272;72503;-20
2023/07/05 04:51:19;;;;;;;4.90;4.30;;;;;;;21.85;77.02;98934.95;104713;1270;71439;-21
2023/07/05 04:53:47;;;;;;;5.80;4.80;;;;;;;21.84;75.33;98943.72;102756;1271;2729642;-21
2023/07/05 04:56:15;;;;;;;5.80;5.20;;;;;;;21.60;75.21;98947.15;104819;1266;61049;-22
2023/07/05 04:58:43;;;;;;;7.60;5.50;;;;;;;21.42;76.85;98949.57;104907;1266;71210;-21
2023/07/05 05:08:49;;;;;;;8.30;5.10;;;;;;;22.21;75.03;98946.33;102700;1293;599428;-21
2023/07/05 05:11:17;;;;;;;8.40;5.20;;;;;;;22.31;74.79;98943.89;104808;1270;61206;-21
2023/07/05 05:13:45;;;;;;;6.40;5.50;;;;;;;22.14;74.02;98946.98;104919;1265;61139;-21
2023/07/05 05:16:13;;;;;;;13.30;5.30;;;;;;;21.77;74.00;98943.95;104854;1271;72199;-21
2023/07/05 05:18:41;;;;;;;8.20;6.20;;;;;;;21.40;75.28;98945.77;104852;1267;74226;-21
2023/07/05 05:21:09;;;;;;;6.10;4.00;;;;;;;21.17;77.26;98953.27;104902;1267;72631;-21
2023/07/05 05:23:37;;;;;;;6.60;4.10;;;;;;;21.46;77.36;98949.80;103212;1263;2677600;-21
2023/07/05 05:26:05;;;;;;;6.90;4.70;;;;;;;21.83;76.23;98951.30;105132;1268;61186;-21
2023/07/05 05:28:32;;;;;;;10.30;5.50;;;;;;;21.87;75.84;98950.02;104886;1264;70480;-22
2023/07/05 05:31:05;;;;;;;6.30;5.70;;;;;;;21.68;76.14;98961.85;104904;1263;73935;-22
2023/07/05 05:41:17;;;;;;;6.10;4.00;;;;;;;21.42;78.28;98971.63;102559;1291;600139;-22
2023/07/05 05:43:45;;;;;;;9.70;4.30;;;;;;;22.15;77.22;98967.98;104763;1272;61153;-23
2023/07/05 05:46:14;;;;;;;9.60;4.60;;;;;;;22.70;73.18;98968.81;104813;1270;61157;-23
2023/07/05 05:48:42;;;;;;;5.60;4.20;;;;;;;22.55;72.48;98964.52;104798;1271;72210;-24
2023/07/05 05:51:10;;;;;;;8.70;5.00;;;;;;;22.50;73.56;98963.24;105147;1265;73078;-25
2023/07/05 05:53:37;;;;;;;7.50;5.50;;;;;;;22.41;74.62;98971.39;105139;1268;72691;-24
2023/07/05 05:56:05;;;;;;;6.90;5.20;;;;;;;22.28;73.44;98965.05;107029;1262;2455821;-24
2023/07/05 05:58:32;;;;;;;7.20;5.00;;;;;;;22.18;74.51;98962.97;108786;1261;58729;-24
2023/07/05 06:01:01;;;;;;;7.20;3.80;;;;;;;22.17;75.22;98963.54;108773;1261;71707;-24
2023/07/05 06:03:29;;;;;;;8.20;4.00;;;;;;;22.76;73.89;98963.83;108859;1262;74334;-24
2023/07/05 06:05:57;;;;;;;6.90;4.30;;;;;;;23.38;72.37;98967.67;108902;1261;72677;-24
2023/07/05 06:08:27;;;;;;;18.60;5.80;;;;;;;23.31;69.19;98970.81;108903;1262;59066;-24
2023/07/05 06:11:00;;;;;;;21.40;4.90;;;;;;;23.06;71.98;98974.38;108914;1262;60002;-24
2023/07/05 06:13:28;;;;;;;12.10;4.90;;;;;;;22.86;71.10;98977.70;108720;1262;71803;-24
2023/07/05 06:15:56;;;;;;;8.80;5.70;;;;;;;22.60;72.13;98971.23;108795;1261;73593;-24
2023/07/05 06:18:40;;;;;;;5.50;4.90;;;;;;;22.34;72.94;98975.76;108759;1260;71384;-24
2023/07/05 06:21:10;;;;;;;7.60;5.10;;;;;;;22.27;73.80;98972.02;108854;1261;58925;-24
2023/07/05 06:23:37;;;;;;;5.40;3.50;;;;;;;22.22;74.31;98971.05;108845;1261;58783;-24
2023/07/05 06:26:05;;;;;;;5.10;3.90;;;;;;;22.67;72.88;98971.92;108781;1261;71988;-24
2023/07/05 06:28:33;;;;;;;5.60;3.90;;;;;;;22.96;70.70;98971.36;108865;1260;73665;-24
2023/07/05 06:31:05;;;;;;;7.30;5.10;;;;;;;23.28;71.25;98975.56;108769;1262;72682;-23
2023/07/05 06:33:33;;;;;;;7.40;4.60;;;;;;;23.44;70.47;98977.58;108763;1260;58817;-24
2023/07/05 06:36:01;;;;;;;8.70;5.10;;;;;;;23.49;71.01;98979.92;109176;1257;59486;-24
2023/07/05 06:38:29;;;;;;;7.50;5.10;;;;;;;23.72;70.69;98981.09;109129;1256;73041;-24
2023/07/05 06:40:57;;;;;;;7.40;5.10;;;;;;;23.90;69.78;98981.99;109087;1256;73113;-24
2023/07/05 06:43:25;;;;;;;7.90;4.90;;;;;;;24.03;69.00;98982.23;109115;1256;72690;-24
2023/07/05 06:45:54;;;;;;;7.70;4.70;;;;;;;24.08;69.18;98982.78;109039;1256;60215;-24
2023/07/05 06:48:22;;;;;;;7.00;5.00;;;;;;;24.26;69.58;98979.91;108986;1256;60013;-24
2023/07/05 06:50:54;;;;;;;4.30;3.30;;;;;;;24.45;68.01;98977.75;109089;1256;72827;-24
2023/07/05 06:53:22;;;;;;;4.30;3.40;;;;;;;24.98;66.95;98977.34;108973;1256;74341;-24
2023/07/05 06:56:09;;;;;;;5.50;3.90;;;;;;;25.42;63.81;98977.55;109030;1256;72651;-23
2023/07/05 06:58:37;;;;;;;7.10;4.10;;;;;;;25.61;63.42;98977.04;109161;1257;58876;-25
2023/07/05 07:01:05;;;;;;;8.30;4.40;;;;;;;25.38;63.58;98974.27;109070;1256;60022;-24
2023/07/05 07:03:33;;;;;;;7.50;4.30;;;;;;;25.30;64.63;98967.64;109056;1256;73083;-24
2023/07/05 07:06:00;;;;;;;4.60;4.10;;;;;;;25.26;64.31;98970.88;109074;1256;74321;-24
2023/07/05 07:08:30;;;;;;;7.90;4.20;;;;;;;25.26;63.13;98966.35;109097;1256;71439;-24
2023/07/05 07:11:02;;;;;;;7.30;4.50;;;;;;;25.19;64.34;98966.55;108992;1256;60066;-24
2023/07/05 07:13:30;;;;;;;8.80;4.10;;;;;;;25.19;64.14;98963.86;109095;1256;60099;-24
2023/07/05 07:16:11;;;;;;;5.70;4.20;;;;;;;25.22;62.68;98962.09;109069;1257;73062;-24
2023/07/05 07:18:44;;;;;;;8.10;3.70;;;;;;;25.38;62.78;98963.29;109035;1256;74246;-24
2023/07/05 07:21:12;;;;;;;;;;;;;;;25.45;59.97;98966.67;108986;1257;71904;-24
2023/07/05 07:23:39;;;;;;;4.80;4.20;;;;;;;25.51;61.07;98970.70;109031;1256;58893;-23
2023/07/05 07:26:13;;;;;;;5.20;3.90;;;;;;;25.65;60.88;98969.90;109095;1256;59936;-23
2023/07/05 07:28:40;;;;;;;4.80;3.90;;;;;;;25.74;61.20;98969.61;108957;1256;72988;-23
2023/07/05 07:31:13;;;;;;;5.10;3.80;;;;;;;25.58;60.14;98975.36;109111;1257;74561;-23
2023/07/05 07:33:41;;;;;;;;;;;;;;;25.94;59.70;98970.64;108887;1256;72223;-23
2023/07/05 07:36:10;;;;;;;4.30;3.40;;;;;;;26.06;58.41;98968.89;109047;1256;58843;-23
2023/07/05 07:38:38;;;;;;;6.20;3.70;;;;;;;26.11;58.83;98973.67;108986;1257;60019;-24
2023/07/05 07:41:29;;;;;;;3.80;3.50;;;;;;;26.20;57.42;98969.48;108995;1259;71727;-24
2023/07/05 07:44:04;;;;;;;5.80;3.60;;;;;;;26.18;56.10;98968.84;109000;1258;73217;-24
2023/07/05 07:46:32;;;;;;;5.80;3.60;;;;;;;26.12;56.35;98974.03;108907;1259;72718;-24
2023/07/05 07:49:01;;;;;;;5.30;2.90;;;;;;;25.93;55.91;98971.47;108926;1265;58773;-24
2023/07/05 07:51:30;;;;;;;5.00;3.20;;;;;;;26.14;55.40;98972.04;108998;1259;60048;-24
2023/07/05 07:54:02;;;;;;;6.90;3.80;;;;;;;26.07;55.62;98972.71;108918;1261;71839;-22
2023/07/05 07:56:30;;;;;;;3.60;3.10;;;;;;;25.86;55.96;98973.63;108968;1264;73557;-23
2023/07/05 07:59:01;;;;;;;4.50;3.60;;;;;;;25.81;56.87;98976.07;108977;1258;71736;-22
2023/07/05 08:01:32;;;;;;;4.50;3.50;;;;;;;25.99;56.43;98974.05;108875;1261;59334;-22
2023/07/05 08:04:02;;;;;;;7.30;3.50;;;;;;;26.22;54.09;98969.99;108943;1260;58761;-22
2023/07/05 08:06:36;;;;;;;3.50;3.00;;;;;;;26.45;54.54;98973.53;108972;1259;71464;-24
2023/07/05 08:09:05;;;;;;;4.80;3.40;;;;;;;26.64;53.93;98978.08;108908;1259;74336;-24
2023/07/05 08:11:33;;;;;;;4.70;3.50;;;;;;;26.97;53.79;98978.16;108965;1258;72698;-23
2023/07/05 08:14:01;;;;;;;7.60;3.10;;;;;;;26.54;52.36;98981.52;109013;1259;60098;-24
2023/07/05 08:16:28;;;;;;;6.00;2.80;;;;;;;26.76;52.09;98981.13;109048;1260;58823;-23
2023/07/05 08:18:57;;;;;;;6.10;3.50;;;;;;;27.31;51.11;98981.95;109041;1258;73015;-23
2023/07/05 08:21:25;;;;;;;5.50;2.90;;;;;;;27.75;50.81;98980.84;109011;1258;74306;-24
2023/07/05 08:23:52;;;;;;;67.30;34.10;;;;;;;27.97;50.01;98984.80;108999;1261;71768;-24
2023/07/05 08:26:20;;;;;;;14.90;8.40;;;;;;;28.18;50.71;98985.48;109006;1261;58867;-24
2023/07/05 08:28:48;;;;;;;7.70;5.00;;;;;;;28.49;48.43;98989.77;108982;1259;60048;-24
2023/07/05 08:31:16;;;;;;;4.80;3.90;;;;;;;28.42;48.06;98990.05;109017;1260;73058;-22
2023/07/05 08:33:45;;;;;;;6.70;4.40;;;;;;;28.69;48.84;98989.75;109004;1258;73667;-24
2023/07/05 08:36:12;;;;;;;4.30;3.50;;;;;;;28.67;48.71;98993.90;108976;1258;71421;-23
2023/07/05 08:38:51;;;;;;;5.60;3.60;;;;;;;28.14;47.00;98994.63;108972;1259;60054;-24
2023/07/05 08:41:33;;;;;;;12.20;6.10;;;;;;;27.11;49.14;98991.98;108929;1259;58825;-23
2023/07/05 08:44:01;;;;;;;;;;;;;;;27.21;50.17;98994.90;108957;1260;71832;-23
2023/07/05 08:46:29;;;;;;;5.10;3.60;;;;;;;27.80;48.84;98989.33;108993;1261;74382;-24
2023/07/05 08:49:01;;;;;;;11.10;5.10;;;;;;;28.40;50.98;98992.21;109012;1260;72731;-24
2023/07/05 08:51:29;;;;;;;12.10;6.40;;;;;;;28.84;47.78;98993.40;108859;1258;58930;-23
2023/07/05 08:53:57;;;;;;;6.90;4.30;;;;;;;28.63;47.42;98989.56;108989;1263;59993;-23
2023/07/05 08:56:28;;;;;;;11.20;4.30;;;;;;;28.47;47.47;98992.48;108932;1260;73027;-23
2023/07/05 08:59:03;;;;;;;6.50;4.00;;;;;;;28.99;47.84;98993.02;108890;1260;74321;-24
2023/07/05 09:01:33;;;;;;;4.90;3.60;;;;;;;29.44;47.44;98991.23;108841;1260;71416;-23
2023/07/05 09:04:01;;;;;;;4.40;3.10;;;;;;;29.45;46.87;98992.05;108899;1259;58765;-23
2023/07/05 09:07:01;;;;;;;10.50;5.90;;;;;;;29.47;47.25;98995.52;108944;1260;58788;-23
2023/07/05 09:09:34;;;;;;;5.70;3.40;;;;;;;29.34;46.58;98994.97;108956;1259;73086;-23
2023/07/05 09:12:20;;;;;;;5.00;3.60;;;;;;;29.33;46.43;98992.59;109079;1258;74745;-23
2023/07/05 09:15:09;;;;;;;6.30;3.60;;;;;;;29.25;46.51;98997.52;108825;1260;72692;-23
2023/07/05 09:17:46;;;;;;;6.00;4.00;;;;;;;28.40;46.82;98997.30;108922;1260;58795;-23
2023/07/05 09:20:27;;;;;;;7.00;3.80;;;;;;;28.79;48.18;99000.77;109065;1259;60035;-23
2023/07/05 09:22:55;;;;;;;9.50;5.60;;;;;;;28.99;46.04;98999.48;108995;1259;73060;-23
2023/07/05 09:25:22;;;;;;;10.70;6.50;;;;;;;28.70;46.64;98997.54;108892;1261;74348;-24
2023/07/05 09:28:21;;;;;;;5.40;4.40;;;;;;;29.41;46.04;98996.38;108997;1259;71381;-24
2023/07/05 09:30:50;;;;;;;10.20;6.20;;;;;;;30.01;44.95;98998.89;108888;1260;60035;-23
2023/07/05 09:33:32;;;;;;;6.70;4.80;;;;;;;30.41;44.09;99002.82;109021;1259;58926;-23
2023/07/05 09:36:03;;;;;;;13.00;6.10;;;;;;;30.35;43.59;99004.86;108873;1258;64179;-23
2023/07/05 09:38:35;;;;;;;3.50;3.20;;;;;;;30.57;44.56;99002.80;108977;1260;65405;-24
2023/07/05 09:41:13;;;;;;;3.90;3.50;;;;;;;30.75;43.57;99003.30;108924;1259;63779;-24
2023/07/05 09:43:40;;;;;;;14.10;7.80;;;;;;;30.19;43.79;99008.20;108903;1265;58842;-24
2023/07/05 09:46:13;;;;;;;5.60;4.30;;;;;;;29.36;46.24;99009.18;108999;1259;59369;-23
2023/07/05 09:48:43;;;;;;;5.10;3.80;;;;;;;30.18;45.09;99007.58;108841;1259;63014;-23
2023/07/05 09:51:11;;;;;;;4.80;3.40;;;;;;;30.58;44.72;99003.34;109008;1259;64278;-24
2023/07/05 09:53:45;;;;;;;4.40;3.30;;;;;;;30.71;44.56;98995.37;108945;1260;63894;-24
2023/07/05 09:56:18;;;;;;;5.30;3.20;;;;;;;30.83;44.08;98994.04;108900;1259;58843;-23
2023/07/05 09:58:48;;;;;;;6.20;3.70;;;;;;;30.38;43.17;98999.95;108998;1260;58780;-23
2023/07/05 10:01:18;;;;;;;7.40;3.50;;;;;;;30.39;44.05;98996.02;108937;1260;64977;-24
2023/07/05 10:03:52;;;;;;;7.90;3.40;;;;;;;30.47;44.66;98994.38;108973;1259;67351;-24
2023/07/05 10:06:23;;;;;;;4.60;3.10;;;;;;;30.42;45.29;98993.88;108983;1260;63800;-23
2023/07/05 10:08:52;;;;;;;4.40;3.70;;;;;;;30.51;44.92;98994.83;108835;1259;58792;-24
2023/07/05 10:11:26;;;;;;;4.10;3.40;;;;;;;30.62;44.37;98994.23;109017;1260;58695;-23
2023/07/05 10:14:12;;;;;;;5.60;3.40;;;;;;;30.85;44.63;98992.55;109011;1259;63667;-23
2023/07/05 10:16:49;;;;;;;5.70;3.50;;;;;;;30.97;44.70;98985.88;108892;1260;65430;-23
2023/07/05 10:19:32;;;;;;;4.90;3.90;;;;;;;31.16;43.52;98984.09;108957;1260;63777;-23
2023/07/05 10:22:20;;;;;;;5.00;3.20;;;;;;;31.29;41.90;98984.27;108931;1259;58759;-23
2023/07/05 10:24:48;;;;;;;3.90;3.50;;;;;;;31.37;42.38;98982.77;108924;1261;58727;-23
2023/07/05 10:27:36;;;;;;;4.30;3.90;;;;;;;31.68;41.24;98988.73;108868;1259;64946;-23
2023/07/05 10:30:13;;;;;;;5.50;4.20;;;;;;;32.01;40.41;98984.48;108861;1260;65424;-24
2023/07/05 10:32:41;;;;;;;6.60;3.70;;;;;;;32.32;41.57;98982.70;108923;1259;62582;-24
2023/07/05 10:35:16;;;;;;;12.60;4.70;;;;;;;32.72;41.05;98972.29;108955;1260;58758;-24
2023/07/05 10:37:43;;;;;;;13.90;4.20;;;;;;;32.96;39.83;98970.50;108917;1260;58779;-23
2023/07/05 10:40:11;;;;;;;8.20;5.20;;;;;;;32.96;39.74;98970.16;109094;1259;64093;-24
2023/07/05 10:42:41;;;;;;;5.10;4.00;;;;;;;32.05;39.71;98973.85;108874;1259;65388;-23
2023/07/05 10:45:13;;;;;;;36.00;19.70;;;;;;;32.19;40.24;98972.69;108925;1260;63943;-24
2023/07/05 10:47:41;;;;;;;11.10;6.20;;;;;;;32.06;40.90;98967.61;108828;1260;58837;-24
2023/07/05 10:50:09;;;;;;;5.80;4.70;;;;;;;31.84;41.99;98967.29;108857;1259;58860;-24
2023/07/05 10:52:38;;;;;;;8.10;5.20;;;;;;;31.61;43.42;98965.79;109061;1260;63639;-23
2023/07/05 10:55:14;;;;;;;8.30;4.30;;;;;;;32.07;41.01;98961.59;108765;1263;65437;-24
2023/07/05 10:57:44;;;;;;;14.10;8.70;;;;;;;32.28;41.63;98962.88;108950;1261;62494;-24
2023/07/05 11:00:37;;;;;;;5.30;4.40;;;;;;;32.67;41.06;98962.53;108800;1261;58712;-23
2023/07/05 11:03:14;;;;;;;7.20;4.20;;;;;;;33.16;39.31;98963.41;108968;1259;58753;-23
2023/07/05 11:05:43;;;;;;;3.90;3.40;;;;;;;33.07;39.20;98959.02;108877;1259;75116;-23
2023/07/05 11:08:41;;;;;;;4.10;3.70;;;;;;;32.71;39.86;98959.56;108837;1260;65427;-24
2023/07/05 11:11:17;;;;;;;4.00;3.60;;;;;;;31.88;40.35;98965.05;108905;1259;64361;-24
2023/07/05 11:13:46;;;;;;;4.60;3.70;;;;;;;31.70;41.05;98963.17;108855;1259;58734;-24
2023/07/05 11:16:27;;;;;;;4.90;3.30;;;;;;;31.76;40.94;98961.59;108845;1260;58849;-24
2023/07/05 11:19:05;;;;;;;6.30;4.00;;;;;;;31.79;42.87;98961.79;108871;1259;64927;-24
2023/07/05 11:21:37;;;;;;;4.20;3.50;;;;;;;31.94;42.40;98958.68;108851;1260;65503;-24
2023/07/05 11:24:06;;;;;;;6.10;3.80;;;;;;;31.82;41.32;98955.61;108797;1259;63783;-24
2023/07/05 11:26:42;;;;;;;3.70;3.20;;;;;;;31.87;41.31;98954.59;108767;1259;59312;-24
2023/07/05 11:29:28;;;;;;;6.10;4.00;;;;;;;32.24;42.59;98955.92;108931;1259;58696;-24
2023/07/05 11:31:58;;;;;;;5.40;3.80;;;;;;;32.43;41.77;98953.77;108954;1259;64970;-24
2023/07/05 11:34:26;;;;;;;62.80;31.20;;;;;;;32.50;41.96;98953.21;108927;1259;65422;-24
2023/07/05 11:37:06;;;;;;;25.60;13.90;;;;;;;31.77;40.90;98951.41;108823;1259;63745;-24
2023/07/05 11:39:48;;;;;;;9.50;6.70;;;;;;;31.52;40.97;98949.05;108810;1259;58812;-24
2023/07/05 11:42:16;;;;;;;5.20;4.10;;;;;;;30.93;42.35;98952.11;108699;1260;58808;-24
2023/07/05 11:44:48;;;;;;;5.70;3.80;;;;;;;31.09;42.63;98945.92;108907;1260;63656;-24
2023/07/05 11:47:23;;;;;;;5.30;3.50;;;;;;;31.32;42.77;98942.38;108828;1260;75548;-24
2023/07/05 11:49:58;;;;;;;4.00;3.50;;;;;;;31.48;43.17;98941.38;108910;1260;62446;-25
2023/07/05 11:52:27;;;;;;;4.10;3.70;;;;;;;31.76;42.17;98934.28;108800;1260;58804;-24
2023/07/05 11:54:59;;;;;;;4.70;3.60;;;;;;;32.03;40.82;98938.16;108868;1260;58782;-24
2023/07/05 11:57:27;;;;;;;3.90;3.40;;;;;;;32.02;41.05;98937.09;108763;1260;63698;-24
2023/07/05 12:00:20;;;;;;;3.70;3.30;;;;;;;32.35;41.09;98935.35;108740;1260;65458;-24
2023/07/05 12:02:57;;;;;;;5.80;3.60;;;;;;;31.86;40.07;98934.27;108817;1260;63714;-24
2023/07/05 12:05:29;;;;;;;7.40;4.40;;;;;;;31.73;41.21;98928.19;108808;1260;59218;-24
2023/07/05 12:08:05;;;;;;;7.40;4.00;;;;;;;31.22;41.06;98927.80;108854;1260;58717;-24
2023/07/05 12:10:34;;;;;;;6.60;4.50;;;;;;;31.41;40.88;98920.48;108771;1261;63651;-24
2023/07/05 12:13:03;;;;;;;7.30;4.30;;;;;;;31.29;41.64;98917.72;108704;1260;65430;-24
2023/07/05 12:15:34;;;;;;;3.90;3.50;;;;;;;31.15;42.15;98914.38;108794;1261;62453;-24
2023/07/05 12:18:03;;;;;;;6.60;3.70;;;;;;;31.58;41.19;98913.15;108756;1263;58771;-24
2023/07/05 12:20:37;;;;;;;5.20;3.40;;;;;;;31.68;40.86;98916.23;108722;1260;58687;-24
2023/07/05 12:23:07;;;;;;;4.40;3.40;;;;;;;31.39;40.52;98918.75;108725;1260;64941;-24
2023/07/05 12:25:35;;;;;;;3.60;2.90;;;;;;;30.93;40.87;98916.09;108842;1260;65455;-23
2023/07/05 12:28:03;;;;;;;4.30;3.10;;;;;;;30.64;41.59;98914.11;108743;1264;62449;-25
2023/07/05 12:30:37;;;;;;;3.80;2.70;;;;;;;30.49;43.03;98907.05;108814;1260;58808;-23
2023/07/05 12:33:05;;;;;;;5.20;3.00;;;;;;;31.09;42.57;98905.77;108797;1260;62240;-25
2023/07/05 12:35:33;;;;;;;4.90;3.30;;;;;;;31.07;41.22;98908.89;108825;1260;64930;-25
2023/07/05 12:38:10;;;;;;;3.90;3.50;;;;;;;30.73;42.63;98909.33;108925;1260;65415;-24
2023/07/05 12:40:40;;;;;;;3.20;2.80;;;;;;;30.64;42.88;98904.23;108852;1262;74851;-24
2023/07/05 12:43:11;;;;;;;3.50;3.20;;;;;;;30.99;41.86;98905.61;108702;1262;58759;-24
2023/07/05 12:45:43;;;;;;;7.30;3.10;;;;;;;31.27;41.79;98902.88;108750;1262;58798;-24
2023/07/05 12:48:28;;;;;;;4.60;4.10;;;;;;;31.35;41.04;98898.16;108781;1262;63754;-24
2023/07/05 12:51:11;;;;;;;6.40;4.00;;;;;;;31.16;42.54;98897.86;108787;1262;65841;-24